createdAt,value
2023-05-21T00:02:20.415Z,3.90
2023-05-21T00:04:48.037Z,3.80
2023-05-21T00:07:15.980Z,4.30
2023-05-21T00:09:43.885Z,3.70
2023-05-21T00:12:11.450Z,3.60
2023-05-21T00:14:39.064Z,4.00
2023-05-21T00:17:06.972Z,3.70
2023-05-21T00:19:34.706Z,4.40
2023-05-21T00:22:05.017Z,4.20
2023-05-21T00:24:32.476Z,4.40
2023-05-21T00:27:00.150Z,4.00
2023-05-21T00:29:28.216Z,4.30
2023-05-21T00:31:56.467Z,3.90
2023-05-21T00:34:24.073Z,4.30
2023-05-21T00:36:53.869Z,4.20
2023-05-21T00:39:21.623Z,4.10
2023-05-21T00:41:49.954Z,4.50
2023-05-21T00:44:18.875Z,3.70
2023-05-21T00:46:49.205Z,4.30
2023-05-21T00:49:17.562Z,4.60
2023-05-21T00:51:46.332Z,4.00
2023-05-21T00:54:14.418Z,3.90
2023-05-21T00:56:42.052Z,3.90
2023-05-21T00:59:09.572Z,4.10
2023-05-21T01:01:37.737Z,3.80
2023-05-21T01:04:05.523Z,3.70
2023-05-21T01:06:35.966Z,4.10
2023-05-21T01:09:07.448Z,3.80
2023-05-21T01:11:40.458Z,4.40
2023-05-21T01:14:09.753Z,4.30
2023-05-21T01:16:37.913Z,4.30
2023-05-21T01:19:05.880Z,3.80
2023-05-21T01:21:38.197Z,4.00
2023-05-21T01:24:08.499Z,4.60
2023-05-21T01:26:39.264Z,4.30
2023-05-21T01:29:07.195Z,5.00
2023-05-21T01:31:56.036Z,4.30
2023-05-21T01:34:31.308Z,4.40
2023-05-21T01:37:28.573Z,4.40
2023-05-21T01:39:57.725Z,5.10
2023-05-21T01:42:25.365Z,4.20
2023-05-21T01:44:54.994Z,5.00
2023-05-21T01:47:25.842Z,4.50
2023-05-21T01:49:53.514Z,4.40
2023-05-21T01:52:21.137Z,5.10
2023-05-21T01:54:50.414Z,4.90
2023-05-21T01:57:18.916Z,4.40
2023-05-21T01:59:48.251Z,4.90
2023-05-21T02:02:16.063Z,5.20
2023-05-21T02:04:44.532Z,4.60
2023-05-21T02:07:14.675Z,4.50
2023-05-21T02:09:42.273Z,4.30
2023-05-21T02:12:09.740Z,4.60
2023-05-21T02:14:38.788Z,4.90
2023-05-21T02:17:08.456Z,4.60
2023-05-21T02:19:36.004Z,4.60
2023-05-21T02:22:03.510Z,4.90
2023-05-21T02:24:31.757Z,4.70
2023-05-21T02:26:59.259Z,4.70
2023-05-21T02:29:26.820Z,4.20
2023-05-21T02:31:54.952Z,4.70
2023-05-21T02:34:22.774Z,4.20
2023-05-21T02:36:52.647Z,4.70
2023-05-21T02:39:20.293Z,4.50
2023-05-21T02:41:47.785Z,4.50
2023-05-21T02:44:15.880Z,5.20
2023-05-21T02:46:43.441Z,4.90
2023-05-21T02:49:11.293Z,4.80
2023-05-21T02:51:39.732Z,4.50
2023-05-21T02:54:07.342Z,5.00
2023-05-21T02:56:34.782Z,4.80
2023-05-21T02:59:02.537Z,4.50
2023-05-21T03:01:30.474Z,4.80
2023-05-21T03:03:58.294Z,5.20
2023-05-21T03:06:25.861Z,4.50
2023-05-21T03:08:53.417Z,4.80
2023-05-21T03:11:22.912Z,4.70
2023-05-21T03:13:50.554Z,4.80
2023-05-21T03:16:18.292Z,4.70
2023-05-21T03:18:45.765Z,4.80
2023-05-21T03:21:15.796Z,5.40
2023-05-21T03:23:43.408Z,5.20
2023-05-21T03:26:11.960Z,5.40
2023-05-21T03:28:39.414Z,5.10
2023-05-21T03:31:07.686Z,4.70
2023-05-21T03:33:46.023Z,4.80
2023-05-21T03:36:19.033Z,5.40
2023-05-21T03:38:46.834Z,4.90
2023-05-21T03:41:14.345Z,4.90
2023-05-21T03:43:43.550Z,4.50
2023-05-21T03:46:11.452Z,4.70
2023-05-21T03:48:58.605Z,4.60
2023-05-21T03:51:27.861Z,5.10
2023-05-21T03:53:55.671Z,5.00
2023-05-21T03:56:23.462Z,5.10
2023-05-21T03:58:50.977Z,4.90
2023-05-21T04:01:18.515Z,4.60
2023-05-21T04:03:47.076Z,3.90
2023-05-21T04:06:15.897Z,4.40
2023-05-21T04:08:43.744Z,4.60
2023-05-21T04:11:11.348Z,4.40
2023-05-21T04:13:39.242Z,4.50
2023-05-21T04:16:09.437Z,4.60
2023-05-21T04:18:37.172Z,4.80
2023-05-21T04:21:05.361Z,4.80
2023-05-21T04:23:33.854Z,4.50
2023-05-21T04:26:02.242Z,4.70
2023-05-21T04:28:30.285Z,4.10
2023-05-21T04:30:58.170Z,4.70
2023-05-21T04:33:26.250Z,4.30
2023-05-21T04:35:54.190Z,4.00
2023-05-21T04:38:21.804Z,4.50
2023-05-21T04:40:52.629Z,4.40
2023-05-21T04:43:26.515Z,4.10
2023-05-21T04:45:55.425Z,4.40
2023-05-21T04:48:25.978Z,4.20
2023-05-21T04:50:54.139Z,3.90
2023-05-21T04:53:23.945Z,4.50
2023-05-21T04:55:51.505Z,4.20
2023-05-21T04:58:19.859Z,4.00
2023-05-21T05:00:47.738Z,4.20
2023-05-21T05:03:16.602Z,4.40
2023-05-21T05:05:44.689Z,4.10
2023-05-21T05:08:15.505Z,4.20
2023-05-21T05:10:43.863Z,4.50
2023-05-21T05:13:12.997Z,4.10
2023-05-21T05:15:40.952Z,4.40
2023-05-21T05:18:09.045Z,4.10
2023-05-21T05:20:36.560Z,4.20
2023-05-21T05:23:04.108Z,3.90
2023-05-21T05:25:31.530Z,4.00
2023-05-21T05:27:59.276Z,4.60
2023-05-21T05:30:26.827Z,4.10
2023-05-21T05:32:55.628Z,4.30
2023-05-21T05:35:23.100Z,3.60
2023-05-21T05:37:50.664Z,4.30
2023-05-21T05:40:18.139Z,4.10
2023-05-21T05:42:45.709Z,3.60
2023-05-21T05:45:15.627Z,4.00
2023-05-21T05:47:43.127Z,4.10
2023-05-21T05:50:11.351Z,4.10
2023-05-21T05:52:38.915Z,3.60
2023-05-21T05:55:09.334Z,3.80
2023-05-21T05:57:37.677Z,4.00
2023-05-21T06:00:13.878Z,3.70
2023-05-21T06:02:43.874Z,3.80
2023-05-21T06:05:11.473Z,4.00
2023-05-21T06:07:39.110Z,3.40
2023-05-21T06:10:07.892Z,3.80
2023-05-21T06:12:35.478Z,4.30
2023-05-21T06:15:03.351Z,3.80
2023-05-21T06:17:32.097Z,3.50
2023-05-21T06:20:00.929Z,3.60
2023-05-21T06:22:28.503Z,4.10
2023-05-21T06:24:56.131Z,4.00
2023-05-21T06:27:23.622Z,4.30
2023-05-21T06:29:52.446Z,3.30
2023-05-21T06:32:21.836Z,3.60
2023-05-21T06:34:49.511Z,3.70
2023-05-21T06:37:26.461Z,3.80
2023-05-21T06:39:54.725Z,3.70
2023-05-21T06:42:22.535Z,3.90
2023-05-21T06:45:03.088Z,4.10
2023-05-21T06:47:34.561Z,4.00
2023-05-21T06:50:02.821Z,3.90
2023-05-21T06:52:32.109Z,4.30
2023-05-21T06:55:01.014Z,3.70
2023-05-21T06:57:31.697Z,4.00
2023-05-21T06:59:59.368Z,3.80
2023-05-21T07:02:27.160Z,3.40
2023-05-21T07:04:56.114Z,3.60
2023-05-21T07:07:23.590Z,3.40
2023-05-21T07:09:52.232Z,3.80
2023-05-21T07:12:19.780Z,4.00
2023-05-21T07:14:48.512Z,4.10
2023-05-21T07:17:16.036Z,3.60
2023-05-21T07:19:43.562Z,3.80
2023-05-21T07:22:13.057Z,3.90
2023-05-21T07:24:40.495Z,3.60
2023-05-21T07:27:17.764Z,3.80
2023-05-21T07:29:53.300Z,4.10
2023-05-21T07:32:21.489Z,4.00
2023-05-21T07:34:49.422Z,4.00
2023-05-21T07:37:17.056Z,4.00
2023-05-21T07:39:44.635Z,3.70
2023-05-21T07:42:13.107Z,4.10
2023-05-21T07:44:41.732Z,3.80
2023-05-21T07:47:09.274Z,4.10
2023-05-21T07:49:36.708Z,4.90
2023-05-21T07:52:04.582Z,4.10
2023-05-21T07:54:32.283Z,3.80
2023-05-21T07:56:59.754Z,4.10
2023-05-21T07:59:46.081Z,3.90
2023-05-21T08:02:13.647Z,3.90
2023-05-21T08:04:42.864Z,4.30
2023-05-21T08:07:11.154Z,3.80
2023-05-21T08:09:38.822Z,3.40
2023-05-21T08:12:08.245Z,4.10
2023-05-21T08:14:35.840Z,3.80
2023-05-21T08:17:03.419Z,4.70
2023-05-21T08:19:31.606Z,4.30
2023-05-21T08:21:59.228Z,4.20
2023-05-21T08:24:26.852Z,3.80
2023-05-21T08:26:54.413Z,3.60
2023-05-21T08:29:21.999Z,4.00
2023-05-21T08:31:49.650Z,3.90
2023-05-21T08:34:18.819Z,3.60
2023-05-21T08:36:54.229Z,3.40
2023-05-21T08:39:47.668Z,3.60
2023-05-21T08:42:39.932Z,3.40
2023-05-21T08:45:08.245Z,3.60
2023-05-21T08:47:37.121Z,3.70
2023-05-21T08:50:05.938Z,3.40
2023-05-21T08:52:33.589Z,3.90
2023-05-21T08:55:01.394Z,3.70
2023-05-21T08:57:28.863Z,3.80
2023-05-21T08:59:57.385Z,4.10
2023-05-21T09:02:27.011Z,4.00
2023-05-21T09:04:57.945Z,4.10
2023-05-21T09:07:27.890Z,4.20
2023-05-21T09:10:13.183Z,3.90
2023-05-21T09:12:41.378Z,4.30
2023-05-21T09:15:09.094Z,4.20
2023-05-21T09:17:38.388Z,4.00
2023-05-21T09:20:21.129Z,3.60
2023-05-21T09:22:55.818Z,3.30
2023-05-21T09:25:28.701Z,3.90
2023-05-21T09:27:58.113Z,3.70
2023-05-21T09:30:27.804Z,3.50
2023-05-21T09:32:59.551Z,4.10
2023-05-21T09:35:27.170Z,4.10
2023-05-21T09:37:54.679Z,3.70
2023-05-21T09:40:23.495Z,4.10
2023-05-21T09:42:52.412Z,3.90
2023-05-21T09:45:21.260Z,4.20
2023-05-21T09:47:50.170Z,3.50
2023-05-21T09:50:31.988Z,4.00
2023-05-21T09:55:26.976Z,3.50
2023-05-21T09:57:54.401Z,3.90
2023-05-21T10:00:23.348Z,4.40
2023-05-21T10:02:55.382Z,3.70
2023-05-21T10:05:26.822Z,3.60
2023-05-21T10:07:54.862Z,3.70
2023-05-21T10:10:23.336Z,4.30
2023-05-21T10:13:01.962Z,3.80
2023-05-21T10:15:32.050Z,4.20
2023-05-21T10:17:59.593Z,4.30
2023-05-21T10:20:27.160Z,3.60
2023-05-21T10:22:54.673Z,4.00
2023-05-21T10:25:22.263Z,4.20
2023-05-21T10:27:49.783Z,3.80
2023-05-21T10:30:17.806Z,3.70
2023-05-21T10:32:45.495Z,3.90
2023-05-21T10:35:13.200Z,3.50
2023-05-21T10:37:40.781Z,3.90
2023-05-21T10:40:08.850Z,4.00
2023-05-21T10:42:56.531Z,4.20
2023-05-21T10:45:25.587Z,4.00
2023-05-21T10:48:15.351Z,3.50
2023-05-21T10:50:54.058Z,4.00
2023-05-21T10:53:55.998Z,3.80
2023-05-21T10:59:03.330Z,3.60
2023-05-21T11:01:34.347Z,4.30
2023-05-21T11:04:02.105Z,3.80
2023-05-21T11:06:29.657Z,4.40
2023-05-21T11:08:57.265Z,3.70
2023-05-21T11:11:55.294Z,4.00
2023-05-21T11:14:36.172Z,3.80
2023-05-21T11:17:07.142Z,3.90
2023-05-21T11:19:39.029Z,4.20
2023-05-21T11:22:26.965Z,4.10
2023-05-21T11:24:55.557Z,3.90
2023-05-21T11:27:37.157Z,3.80
2023-05-21T11:32:40.407Z,4.20
2023-05-21T11:35:08.542Z,3.90
2023-05-21T11:37:36.378Z,3.70
2023-05-21T11:40:26.642Z,4.50
2023-05-21T11:42:55.527Z,3.50
2023-05-21T11:45:31.210Z,4.30
2023-05-21T11:47:59.046Z,3.80
2023-05-21T11:50:26.729Z,3.60
2023-05-21T11:52:54.180Z,3.90
2023-05-21T11:55:26.319Z,3.60
2023-05-21T11:57:55.597Z,3.90
2023-05-21T12:00:23.567Z,3.90
2023-05-21T12:02:52.388Z,4.20
2023-05-21T12:05:20.114Z,4.00
2023-05-21T12:07:51.934Z,3.60
2023-05-21T12:10:24.172Z,3.70
2023-05-21T12:12:55.464Z,4.00
2023-05-21T12:15:25.472Z,3.60
2023-05-21T12:17:55.788Z,3.90
2023-05-21T12:20:24.157Z,4.00
2023-05-21T12:22:51.841Z,3.50
2023-05-21T12:25:20.971Z,3.40
2023-05-21T12:27:51.285Z,3.70
2023-05-21T12:30:19.207Z,3.90
2023-05-21T12:32:46.801Z,3.40
2023-05-21T12:35:24.494Z,3.70
2023-05-21T12:37:52.601Z,4.00
2023-05-21T12:40:20.525Z,3.90
2023-05-21T12:42:48.085Z,3.90
2023-05-21T12:45:15.722Z,4.50
2023-05-21T12:47:43.108Z,4.10
2023-05-21T12:50:14.355Z,3.80
2023-05-21T12:52:43.601Z,4.60
2023-05-21T12:55:15.398Z,3.80
2023-05-21T12:57:44.393Z,3.70
2023-05-21T13:00:13.074Z,3.50
2023-05-21T13:02:41.699Z,3.90
2023-05-21T13:05:10.994Z,3.50
2023-05-21T13:07:39.890Z,3.60
2023-05-21T13:10:08.255Z,3.80
2023-05-21T13:12:36.142Z,4.00
2023-05-21T13:15:05.836Z,3.80
2023-05-21T13:17:33.349Z,3.40
2023-05-21T13:20:20.493Z,3.40
2023-05-21T13:22:49.449Z,3.90
2023-05-21T13:25:20.760Z,3.70
2023-05-21T13:27:49.216Z,3.30
2023-05-21T13:30:16.740Z,4.00
2023-05-21T13:32:44.336Z,3.80
2023-05-21T13:35:12.652Z,3.70
2023-05-21T13:37:41.108Z,3.80
2023-05-21T13:40:15.891Z,3.70
2023-05-21T13:42:44.732Z,4.00
2023-05-21T13:45:13.163Z,3.90
2023-05-21T13:47:40.882Z,3.70
2023-05-21T13:50:09.477Z,4.20
2023-05-21T13:52:37.729Z,3.80
2023-05-21T13:55:06.293Z,3.80
2023-05-21T13:57:34.124Z,3.60
2023-05-21T14:00:01.831Z,3.80
2023-05-21T14:02:35.431Z,3.70
2023-05-21T14:05:03.081Z,3.90
2023-05-21T14:07:31.434Z,3.50
2023-05-21T14:09:59.051Z,4.10
2023-05-21T14:12:27.248Z,3.70
2023-05-21T14:14:54.672Z,3.80
2023-05-21T14:17:22.230Z,4.30
2023-05-21T14:19:49.744Z,3.80
2023-05-21T14:22:17.250Z,4.00
2023-05-21T14:24:44.695Z,3.50
2023-05-21T14:27:14.567Z,3.40
2023-05-21T14:29:43.071Z,4.00
2023-05-21T14:32:10.695Z,3.70
2023-05-21T14:34:39.608Z,3.80
2023-05-21T14:37:07.513Z,3.60
2023-05-21T14:39:35.110Z,3.20
2023-05-21T14:42:06.150Z,3.60
2023-05-21T14:44:33.880Z,4.10
2023-05-21T14:47:01.445Z,3.70
2023-05-21T14:49:29.004Z,3.30
2023-05-21T14:51:56.485Z,3.80
2023-05-21T14:54:23.993Z,3.10
2023-05-21T14:56:51.602Z,3.40
2023-05-21T14:59:19.153Z,3.80
2023-05-21T15:01:47.048Z,3.70
2023-05-21T15:04:14.763Z,3.50
2023-05-21T15:06:42.626Z,3.30
2023-05-21T15:09:10.122Z,3.90
2023-05-21T15:11:37.603Z,3.40
2023-05-21T15:14:05.124Z,3.90
2023-05-21T15:16:32.732Z,3.30
2023-05-21T15:19:00.260Z,3.40
2023-05-21T15:21:28.288Z,3.50
2023-05-21T15:23:56.268Z,3.60
2023-05-21T15:26:25.918Z,3.70
2023-05-21T15:28:53.417Z,3.20
2023-05-21T15:31:20.942Z,3.70
2023-05-21T15:33:49.393Z,3.60
2023-05-21T15:36:17.167Z,3.80
2023-05-21T15:38:44.912Z,4.00
2023-05-21T15:41:12.628Z,3.30
2023-05-21T15:43:40.153Z,3.30
2023-05-21T15:46:07.666Z,3.60
2023-05-21T15:48:35.579Z,3.60
2023-05-21T15:51:03.073Z,3.50
2023-05-21T15:53:30.772Z,3.80
2023-05-21T15:55:58.249Z,3.60
2023-05-21T15:58:25.796Z,4.20
2023-05-21T16:00:53.447Z,4.00
2023-05-21T16:03:21.199Z,3.40
2023-05-21T16:05:49.093Z,3.50
2023-05-21T16:08:16.701Z,3.70
2023-05-21T16:10:46.306Z,3.50
2023-05-21T16:13:13.861Z,3.60
2023-05-21T16:15:41.650Z,3.50
2023-05-21T16:18:10.180Z,3.60
2023-05-21T16:20:37.917Z,3.40
2023-05-21T16:23:06.869Z,3.80
2023-05-21T16:25:36.674Z,3.60
2023-05-21T16:28:04.894Z,3.50
2023-05-21T16:30:32.319Z,3.50
2023-05-21T16:33:00.400Z,3.40
2023-05-21T16:35:27.901Z,3.90
2023-05-21T16:37:55.708Z,3.70
2023-05-21T16:40:23.449Z,3.50
2023-05-21T16:42:52.339Z,3.50
2023-05-21T16:45:21.896Z,3.50
2023-05-21T16:47:53.075Z,3.80
2023-05-21T16:50:21.113Z,3.60
2023-05-21T16:52:48.668Z,3.60
2023-05-21T16:55:16.390Z,3.80
2023-05-21T16:57:44.085Z,4.00
2023-05-21T17:00:12.514Z,3.80
2023-05-21T17:02:40.137Z,3.60
2023-05-21T17:05:08.517Z,3.90
2023-05-21T17:07:36.072Z,3.80
2023-05-21T17:10:04.230Z,3.90
2023-05-21T17:12:32.015Z,4.00
2023-05-21T17:14:59.624Z,3.50
2023-05-21T17:17:27.742Z,3.80
2023-05-21T17:19:55.399Z,4.00
2023-05-21T17:22:23.146Z,4.20
2023-05-21T17:24:51.091Z,3.90
2023-05-21T17:27:18.772Z,4.00
2023-05-21T17:29:46.292Z,4.40
2023-05-21T17:32:14.071Z,5.00
2023-05-21T17:34:41.589Z,5.30
2023-05-21T17:37:09.135Z,5.80
2023-05-21T17:39:36.771Z,5.10
2023-05-21T17:42:04.658Z,5.00
2023-05-21T17:44:32.232Z,4.20
2023-05-21T17:47:00.064Z,4.20
2023-05-21T17:49:27.738Z,4.40
2023-05-21T17:51:55.222Z,5.30
2023-05-21T17:54:23.154Z,5.50
2023-05-21T17:56:50.767Z,5.00
2023-05-21T17:59:18.386Z,4.90
2023-05-21T18:01:46.250Z,4.30
2023-05-21T18:04:13.977Z,4.90
2023-05-21T18:06:41.609Z,4.80
2023-05-21T18:09:11.127Z,4.80
2023-05-21T18:11:39.283Z,4.70
2023-05-21T18:14:06.904Z,9.20
2023-05-21T18:16:34.484Z,11.30
2023-05-21T18:19:07.899Z,9.10
2023-05-21T18:21:35.734Z,7.00
2023-05-21T18:24:03.667Z,7.10
2023-05-21T18:26:31.172Z,6.50
2023-05-21T18:28:59.103Z,6.10
2023-05-21T18:31:26.740Z,6.00
2023-05-21T18:33:54.391Z,5.90
2023-05-21T18:36:23.084Z,6.00
2023-05-21T18:38:51.314Z,6.30
2023-05-21T18:41:20.316Z,6.40
2023-05-21T18:43:47.977Z,7.10
2023-05-21T18:46:16.233Z,8.40
2023-05-21T18:48:44.153Z,9.10
2023-05-21T18:51:12.069Z,8.20
2023-05-21T18:53:40.846Z,8.00
2023-05-21T18:56:10.357Z,9.10
2023-05-21T18:58:38.771Z,8.50
2023-05-21T19:01:06.970Z,8.10
2023-05-21T19:03:34.588Z,6.70
2023-05-21T19:06:02.308Z,6.30
2023-05-21T19:08:29.990Z,6.40
2023-05-21T19:10:57.666Z,5.40
2023-05-21T19:13:25.251Z,5.90
2023-05-21T19:15:53.299Z,5.50
2023-05-21T19:18:21.309Z,5.60
2023-05-21T19:20:49.044Z,5.40
2023-05-21T19:23:16.724Z,5.30
2023-05-21T19:25:44.323Z,5.70
2023-05-21T19:28:11.781Z,5.60
2023-05-21T19:30:39.777Z,6.60
2023-05-21T19:33:07.871Z,6.40
2023-05-21T19:35:35.450Z,5.80
2023-05-21T19:38:05.079Z,6.40
2023-05-21T19:40:33.994Z,6.70
2023-05-21T19:43:01.693Z,5.30
2023-05-21T19:45:29.419Z,5.10
2023-05-21T19:47:57.235Z,6.30
2023-05-21T19:50:25.426Z,5.50
2023-05-21T19:52:54.040Z,4.90
2023-05-21T19:55:21.645Z,5.70
2023-05-21T19:57:49.223Z,4.80
2023-05-21T20:00:17.264Z,5.50
2023-05-21T20:02:46.294Z,5.20
2023-05-21T20:05:14.241Z,5.40
2023-05-21T20:07:41.919Z,5.60
2023-05-21T20:10:09.578Z,5.20
2023-05-21T20:12:37.356Z,5.10
2023-05-21T20:15:08.698Z,5.30
2023-05-21T20:17:36.282Z,4.60
2023-05-21T20:20:06.655Z,5.10
2023-05-21T20:22:34.337Z,5.30
2023-05-21T20:25:04.233Z,5.50
2023-05-21T20:27:32.484Z,5.50
2023-05-21T20:29:59.977Z,5.20
2023-05-21T20:32:27.685Z,5.70
2023-05-21T20:35:02.701Z,5.60
2023-05-21T20:37:32.822Z,4.80
2023-05-21T20:40:00.383Z,5.30
2023-05-21T20:42:28.900Z,5.30
2023-05-21T20:44:59.254Z,5.50
2023-05-21T20:47:30.313Z,4.90
2023-05-21T20:49:59.721Z,5.40
2023-05-21T20:52:27.446Z,5.20
2023-05-21T20:54:59.983Z,5.40
2023-05-21T20:57:27.723Z,5.20
2023-05-21T20:59:55.262Z,4.90
2023-05-21T21:02:23.530Z,5.10
2023-05-21T21:04:51.142Z,5.00
2023-05-21T21:07:18.896Z,5.50
2023-05-21T21:09:49.696Z,5.50
2023-05-21T21:14:47.683Z,5.40
2023-05-21T21:17:15.205Z,5.50
2023-05-21T21:19:42.688Z,5.30
2023-05-21T21:22:10.266Z,5.60
2023-05-21T21:24:37.878Z,6.30
2023-05-21T21:27:06.528Z,5.20
2023-05-21T21:29:34.024Z,4.90
2023-05-21T21:32:01.608Z,5.40
2023-05-21T21:34:29.151Z,5.10
2023-05-21T21:36:56.667Z,5.10
2023-05-21T21:39:26.736Z,5.60
2023-05-21T21:41:54.372Z,5.40
2023-05-21T21:44:21.889Z,5.90
2023-05-21T21:46:49.510Z,5.40
2023-05-21T21:49:17.724Z,5.10
2023-05-21T21:51:45.419Z,5.20
2023-05-21T21:54:12.981Z,5.80
2023-05-21T21:56:40.589Z,5.90
2023-05-21T21:59:08.284Z,5.40
2023-05-21T22:01:36.581Z,6.00
2023-05-21T22:04:04.304Z,5.30
2023-05-21T22:06:32.385Z,5.10
2023-05-21T22:09:00.226Z,5.90
2023-05-21T22:11:28.852Z,5.40
2023-05-21T22:13:56.518Z,5.40
2023-05-21T22:16:27.953Z,5.30
2023-05-21T22:18:55.860Z,5.60
2023-05-21T22:21:27.460Z,5.20
2023-05-21T22:23:55.099Z,5.20
2023-05-21T22:26:23.476Z,5.50
2023-05-21T22:28:51.760Z,5.00
2023-05-21T22:31:19.585Z,5.70
2023-05-21T22:33:47.331Z,5.20
2023-05-21T22:36:14.927Z,5.20
2023-05-21T22:38:44.336Z,5.10
2023-05-21T22:41:11.956Z,5.20
2023-05-21T22:43:39.537Z,5.40
2023-05-21T22:46:07.311Z,5.30
2023-05-21T22:48:37.515Z,4.90
2023-05-21T22:51:05.853Z,4.90
2023-05-21T22:53:33.859Z,5.40
2023-05-21T22:56:01.552Z,5.30
2023-05-21T22:58:29.120Z,5.10
2023-05-21T23:00:56.803Z,5.50
2023-05-21T23:03:24.506Z,4.90
2023-05-21T23:05:52.022Z,5.60
2023-05-21T23:08:19.792Z,5.30
2023-05-21T23:10:47.284Z,5.60
2023-05-21T23:13:14.881Z,5.90
2023-05-21T23:15:44.275Z,5.60
2023-05-21T23:18:12.095Z,5.50
2023-05-21T23:20:41.794Z,5.90
2023-05-21T23:23:10.816Z,6.10
2023-05-21T23:25:38.374Z,5.80
2023-05-21T23:28:06.111Z,5.60
2023-05-21T23:30:33.801Z,5.50
2023-05-21T23:33:01.485Z,4.80
2023-05-21T23:35:29.277Z,4.50
2023-05-21T23:37:56.863Z,4.70
2023-05-21T23:40:24.434Z,5.80
2023-05-21T23:42:52.021Z,4.70
2023-05-21T23:45:19.844Z,4.80
2023-05-21T23:47:47.578Z,4.90
2023-05-21T23:50:15.341Z,5.10
2023-05-21T23:52:43.287Z,4.90
2023-05-21T23:55:12.914Z,5.70
2023-05-21T23:57:41.433Z,4.80
